createdAt,value
2018-04-10T00:00:36.207Z,12.67
2018-04-10T00:03:03.831Z,14.43
2018-04-10T00:05:31.483Z,13.70
2018-04-10T00:07:59.106Z,10.03
2018-04-10T00:10:26.725Z,10.43
2018-04-10T00:12:54.370Z,10.30
2018-04-10T00:15:22.023Z,15.00
2018-04-10T00:17:49.642Z,15.67
2018-04-10T00:20:17.291Z,11.40
2018-04-10T00:22:44.915Z,8.80
2018-04-10T00:25:12.566Z,21.60
2018-04-10T00:27:40.404Z,15.23
2018-04-10T00:30:08.024Z,6.93
2018-04-10T00:32:35.647Z,11.53
2018-04-10T00:35:03.308Z,11.60
2018-04-10T00:37:30.936Z,13.27
2018-04-10T00:39:58.566Z,17.33
2018-04-10T00:42:26.214Z,18.30
2018-04-10T00:44:53.870Z,13.20
2018-04-10T00:47:21.808Z,6.50
2018-04-10T00:49:49.428Z,11.60
2018-04-10T00:52:17.059Z,8.40
2018-04-10T00:54:44.711Z,13.23
2018-04-10T00:57:12.796Z,11.37
2018-04-10T00:59:40.459Z,13.83
2018-04-10T01:02:08.087Z,11.50
2018-04-10T01:04:35.709Z,13.40
2018-04-10T01:07:03.367Z,14.00
2018-04-10T01:09:30.996Z,12.17
2018-04-10T01:11:58.837Z,5.77
2018-04-10T01:14:26.454Z,11.43
2018-04-10T01:16:54.082Z,7.90
2018-04-10T01:19:21.738Z,11.83
2018-04-10T01:21:49.357Z,14.13
2018-04-10T01:24:17.190Z,11.20
2018-04-10T01:26:44.814Z,22.40
2018-04-10T01:29:12.438Z,16.60
2018-04-10T01:31:40.085Z,22.43
2018-04-10T01:34:07.723Z,13.83
2018-04-10T01:36:35.569Z,15.37
2018-04-10T01:39:03.198Z,14.90
2018-04-10T01:41:30.843Z,10.70
2018-04-10T01:43:58.599Z,28.10
2018-04-10T01:46:26.219Z,16.90
2018-04-10T01:48:54.078Z,17.03
2018-04-10T01:51:21.699Z,6.63
2018-04-10T01:53:49.334Z,10.80
2018-04-10T01:56:16.971Z,6.93
2018-04-10T01:58:44.613Z,11.03
2018-04-10T02:01:12.391Z,14.87
2018-04-10T02:03:40.029Z,13.37
2018-04-10T02:06:07.666Z,16.10
2018-04-10T02:08:35.319Z,24.63
2018-04-10T02:11:02.941Z,14.60
2018-04-10T02:13:30.815Z,14.00
2018-04-10T02:15:58.438Z,14.40
2018-04-10T02:18:26.071Z,11.90
2018-04-10T02:20:53.720Z,7.73
2018-04-10T02:23:21.444Z,11.20
2018-04-10T02:25:49.266Z,10.47
2018-04-10T02:28:16.882Z,11.70
2018-04-10T02:30:44.503Z,14.30
2018-04-10T02:33:12.153Z,12.77
2018-04-10T02:35:39.779Z,16.23
2018-04-10T02:38:07.589Z,13.27
2018-04-10T02:40:35.210Z,15.73
2018-04-10T02:43:02.831Z,14.23
2018-04-10T02:45:30.540Z,10.30
2018-04-10T02:47:58.127Z,13.77
2018-04-10T02:50:25.956Z,18.60
2018-04-10T02:52:53.579Z,10.00
2018-04-10T02:55:21.209Z,9.37
2018-04-10T02:57:48.859Z,15.33
2018-04-10T03:00:16.491Z,12.73
2018-04-10T03:02:44.143Z,10.50
2018-04-10T03:05:12.475Z,9.03
2018-04-10T03:07:40.103Z,15.13
2018-04-10T03:10:07.746Z,7.60
2018-04-10T03:12:35.366Z,24.07
2018-04-10T03:15:03.278Z,10.77
2018-04-10T03:17:30.903Z,11.77
2018-04-10T03:19:58.522Z,12.43
2018-04-10T03:22:26.166Z,23.37
2018-04-10T03:24:53.796Z,12.67
2018-04-10T03:27:21.654Z,16.67
2018-04-10T03:29:49.275Z,15.73
2018-04-10T03:32:16.913Z,15.00
2018-04-10T03:34:44.570Z,14.70
2018-04-10T03:37:12.599Z,15.37
2018-04-10T03:39:40.271Z,11.27
2018-04-10T03:42:07.896Z,15.57
2018-04-10T03:44:35.518Z,12.67
2018-04-10T03:47:03.163Z,13.97
2018-04-10T03:49:30.795Z,22.43
2018-04-10T03:51:58.648Z,27.60
2018-04-10T03:54:26.263Z,8.33
2018-04-10T03:56:53.902Z,19.90
2018-04-10T03:59:21.543Z,12.40
2018-04-10T04:01:49.163Z,11.37
2018-04-10T04:04:16.833Z,14.80
2018-04-10T04:06:44.446Z,9.70
2018-04-10T04:09:12.070Z,17.23
2018-04-10T04:11:39.731Z,14.83
2018-04-10T04:14:07.361Z,10.07
2018-04-10T04:16:46.874Z,11.63
2018-04-10T04:19:26.259Z,8.43
2018-04-10T04:22:05.920Z,12.57
2018-04-10T04:24:33.547Z,12.10
2018-04-10T04:27:01.227Z,16.73
2018-04-10T04:29:28.870Z,10.20
2018-04-10T04:31:56.499Z,15.40
2018-04-10T04:34:24.439Z,20.90
2018-04-10T04:36:52.062Z,13.80
2018-04-10T04:39:19.847Z,15.00
2018-04-10T04:41:47.509Z,22.40
2018-04-10T04:44:15.131Z,31.43
2018-04-10T04:46:43.061Z,17.60
2018-04-10T04:49:10.681Z,21.03
2018-04-10T04:51:38.312Z,14.20
2018-04-10T04:54:05.984Z,16.77
2018-04-10T04:56:33.612Z,16.80
2018-04-10T04:59:01.556Z,17.97
2018-04-10T05:01:29.182Z,16.10
2018-04-10T05:03:56.818Z,24.00
2018-04-10T05:06:24.624Z,14.13
2018-04-10T05:08:52.255Z,12.90
2018-04-10T05:11:20.123Z,18.83
2018-04-10T05:13:47.748Z,19.67
2018-04-10T05:16:15.371Z,9.57
2018-04-10T05:18:43.018Z,19.57
2018-04-10T05:21:10.640Z,14.07
2018-04-10T05:23:38.303Z,12.50
2018-04-10T05:26:05.923Z,20.37
2018-04-10T05:28:33.562Z,12.43
2018-04-10T05:31:01.203Z,20.23
2018-04-10T05:33:28.933Z,15.67
2018-04-10T05:35:57.154Z,16.93
2018-04-10T05:38:24.841Z,10.67
2018-04-10T05:40:52.468Z,11.07
2018-04-10T05:43:20.318Z,17.47
2018-04-10T05:45:47.960Z,13.43
2018-04-10T05:48:15.591Z,15.47
2018-04-10T05:50:43.238Z,18.10
2018-04-10T05:53:10.892Z,18.43
2018-04-10T05:55:38.703Z,15.77
2018-04-10T05:58:06.441Z,61.67
2018-04-10T06:00:34.083Z,32.60
2018-04-10T06:03:01.727Z,18.00
2018-04-10T06:05:29.363Z,17.17
2018-04-10T06:07:57.051Z,20.60
2018-04-10T06:10:24.676Z,19.63
2018-04-10T06:12:52.312Z,19.70
2018-04-10T06:15:19.962Z,20.37
2018-04-10T06:17:47.590Z,13.67
2018-04-10T06:20:15.414Z,19.30
2018-04-10T06:22:43.038Z,20.13
2018-04-10T06:25:10.658Z,17.73
2018-04-10T06:27:38.305Z,21.67
2018-04-10T06:30:05.993Z,19.30
2018-04-10T06:32:33.689Z,26.73
2018-04-10T06:35:02.665Z,26.43
2018-04-10T06:37:30.294Z,15.23
2018-04-10T06:39:57.968Z,27.37
2018-04-10T06:42:25.595Z,24.77
2018-04-10T06:44:53.418Z,24.80
2018-04-10T06:47:21.061Z,77.83
2018-04-10T06:49:48.684Z,44.23
2018-04-10T06:52:16.339Z,23.93
2018-04-10T06:54:44.235Z,28.10
2018-04-10T06:57:12.327Z,33.97
2018-04-10T06:59:39.951Z,33.53
2018-04-10T07:02:07.587Z,54.37
2018-04-10T07:04:35.239Z,23.87
2018-04-10T07:07:02.902Z,37.13
2018-04-10T07:09:30.766Z,39.80
2018-04-10T07:11:58.401Z,23.63
2018-04-10T07:14:26.066Z,32.70
2018-04-10T07:16:53.715Z,33.40
2018-04-10T07:19:21.339Z,31.60
2018-04-10T07:21:49.020Z,46.07
2018-04-10T07:24:16.646Z,31.57
2018-04-10T07:26:44.279Z,34.03
2018-04-10T07:29:11.950Z,51.03
2018-04-10T07:31:39.598Z,41.43
2018-04-10T07:34:07.811Z,40.80
2018-04-10T07:36:35.442Z,35.87
2018-04-10T07:39:03.075Z,26.67
2018-04-10T07:41:30.727Z,39.63
2018-04-10T07:43:58.359Z,41.13
2018-04-10T07:46:26.020Z,31.33
2018-04-10T07:48:53.639Z,29.07
2018-04-10T07:51:21.272Z,58.87
2018-04-10T07:53:48.923Z,47.23
2018-04-10T07:56:16.547Z,40.87
2018-04-10T07:58:44.419Z,46.17
2018-04-10T08:01:12.047Z,31.97
2018-04-10T08:03:39.670Z,31.50
2018-04-10T08:06:07.379Z,31.77
2018-04-10T08:08:34.999Z,35.60
2018-04-10T08:11:02.840Z,33.73
2018-04-10T08:13:30.462Z,36.50
2018-04-10T08:15:58.090Z,36.17
2018-04-10T08:18:25.734Z,32.10
2018-04-10T08:20:53.485Z,36.33
2018-04-10T08:23:21.251Z,38.00
2018-04-10T08:25:48.878Z,44.93
2018-04-10T08:28:16.506Z,39.30
2018-04-10T08:30:44.200Z,38.30
2018-04-10T08:33:11.827Z,32.27
2018-04-10T08:35:39.738Z,39.60
2018-04-10T08:38:07.366Z,35.33
2018-04-10T08:40:34.998Z,33.03
2018-04-10T08:43:02.660Z,35.43
2018-04-10T08:45:30.295Z,41.70
2018-04-10T08:47:57.967Z,37.53
2018-04-10T08:50:25.594Z,38.00
2018-04-10T08:52:53.229Z,30.50
2018-04-10T08:55:21.178Z,34.20
2018-04-10T08:57:48.800Z,37.17
2018-04-10T09:00:16.593Z,34.83
2018-04-10T09:02:44.214Z,25.87
2018-04-10T09:05:11.995Z,33.10
2018-04-10T09:07:39.642Z,29.93
2018-04-10T09:10:07.282Z,71.60
2018-04-10T09:12:34.974Z,180.87
2018-04-10T09:15:08.856Z,84.13
2018-04-10T09:17:36.682Z,66.27
2018-04-10T09:20:04.317Z,56.20
2018-04-10T09:22:31.946Z,34.70
2018-04-10T09:24:59.825Z,27.23
2018-04-10T09:27:27.475Z,38.60
2018-04-10T09:29:55.303Z,31.27
2018-04-10T09:32:22.923Z,32.07
2018-04-10T09:34:51.430Z,31.80
2018-04-10T09:37:19.707Z,39.30
2018-04-10T09:39:51.426Z,24.90
2018-04-10T09:42:19.367Z,33.97
2018-04-10T09:44:47.004Z,44.13
2018-04-10T09:47:14.634Z,24.63
2018-04-10T09:49:42.287Z,32.10
2018-04-10T09:52:09.926Z,32.70
2018-04-10T09:54:37.799Z,46.50
2018-04-10T09:57:05.431Z,31.63
2018-04-10T09:59:33.074Z,27.03
2018-04-10T10:02:00.742Z,25.10
2018-04-10T10:04:28.371Z,31.10
2018-04-10T10:06:56.229Z,31.00
2018-04-10T10:09:24.687Z,27.03
2018-04-10T10:11:52.312Z,28.50
2018-04-10T10:14:19.983Z,35.23
2018-04-10T10:16:47.602Z,29.30
2018-04-10T10:19:16.414Z,28.27
2018-04-10T10:21:44.080Z,20.73
2018-04-10T10:24:12.164Z,30.73
2018-04-10T10:26:39.812Z,20.50
2018-04-10T10:29:07.452Z,23.30
2018-04-10T10:31:35.270Z,26.70
2018-04-10T10:34:02.894Z,32.57
2018-04-10T10:36:30.518Z,30.37
2018-04-10T10:38:58.170Z,35.37
2018-04-10T10:41:25.793Z,37.93
2018-04-10T10:43:53.458Z,37.83
2018-04-10T10:46:21.118Z,19.07
2018-04-10T10:48:48.751Z,14.00
2018-04-10T10:51:16.395Z,20.63
2018-04-10T10:53:44.027Z,31.80
2018-04-10T10:56:11.786Z,16.53
2018-04-10T10:58:39.402Z,27.03
2018-04-10T11:01:07.042Z,17.33
2018-04-10T11:03:34.698Z,19.93
2018-04-10T11:06:02.332Z,12.50
2018-04-10T11:08:30.103Z,19.10
2018-04-10T11:10:57.747Z,28.50
2018-04-10T11:13:25.372Z,29.53
2018-04-10T11:15:53.031Z,20.83
2018-04-10T11:18:20.663Z,15.73
2018-04-10T11:20:48.312Z,21.80
2018-04-10T11:23:15.956Z,19.50
2018-04-10T11:25:43.620Z,20.33
2018-04-10T11:28:11.274Z,24.23
2018-04-10T11:30:38.903Z,21.97
2018-04-10T11:33:06.571Z,17.27
2018-04-10T11:35:34.197Z,15.80
2018-04-10T11:38:01.815Z,27.73
2018-04-10T11:40:29.464Z,13.27
2018-04-10T11:42:57.106Z,14.07
2018-04-10T11:45:24.791Z,16.00
2018-04-10T11:47:52.423Z,9.13
2018-04-10T11:50:20.048Z,14.30
2018-04-10T11:52:47.698Z,16.17
2018-04-10T11:55:15.372Z,26.67
2018-04-10T11:57:43.264Z,52.23
2018-04-10T12:00:10.901Z,17.50
2018-04-10T12:02:38.526Z,23.63
2018-04-10T12:05:06.183Z,25.70
2018-04-10T12:07:33.798Z,26.03
2018-04-10T12:10:02.150Z,23.73
2018-04-10T12:12:29.781Z,19.63
2018-04-10T12:14:57.442Z,15.20
2018-04-10T12:17:25.149Z,19.03
2018-04-10T12:19:52.787Z,18.77
2018-04-10T12:22:20.438Z,12.83
2018-04-10T12:24:48.063Z,18.67
2018-04-10T12:27:16.451Z,25.43
2018-04-10T12:29:44.094Z,31.07
2018-04-10T12:32:11.720Z,21.93
2018-04-10T12:34:39.388Z,22.93
2018-04-10T12:37:07.054Z,18.60
2018-04-10T12:39:34.678Z,30.70
2018-04-10T12:42:02.607Z,26.00
2018-04-10T12:44:30.486Z,24.37
2018-04-10T12:46:58.149Z,31.73
2018-04-10T12:49:25.769Z,26.10
2018-04-10T12:51:53.402Z,23.97
2018-04-10T12:54:21.052Z,14.43
2018-04-10T12:56:48.694Z,40.10
2018-04-10T12:59:16.415Z,12.90
2018-04-10T13:01:44.068Z,17.83
2018-04-10T13:04:11.759Z,34.83
2018-04-10T13:06:39.410Z,27.50
2018-04-10T13:09:07.034Z,23.73
2018-04-10T13:11:35.173Z,28.53
2018-04-10T13:14:03.060Z,40.07
2018-04-10T13:16:30.843Z,29.83
2018-04-10T13:18:58.502Z,22.80
2018-04-10T13:21:26.171Z,17.60
2018-04-10T13:23:53.998Z,21.93
2018-04-10T13:26:21.944Z,22.90
2018-04-10T13:28:49.954Z,20.93
2018-04-10T13:31:17.658Z,20.17
2018-04-10T13:33:47.320Z,45.47
2018-04-10T13:36:15.187Z,24.20
2018-04-10T13:38:42.931Z,25.63
2018-04-10T13:41:10.941Z,19.33
2018-04-10T13:43:38.892Z,27.20
2018-04-10T13:46:06.955Z,24.87
2018-04-10T13:48:34.827Z,23.20
2018-04-10T13:51:02.447Z,37.77
2018-04-10T13:53:31.616Z,24.03
2018-04-10T13:55:59.263Z,19.67
2018-04-10T13:58:28.586Z,31.33
2018-04-10T14:00:56.257Z,24.23
2018-04-10T14:03:23.879Z,24.03
2018-04-10T14:05:51.499Z,30.97
2018-04-10T14:08:19.157Z,31.70
2018-04-10T14:10:46.801Z,35.70
2018-04-10T14:13:14.728Z,25.23
2018-04-10T14:15:42.702Z,26.90
2018-04-10T14:18:10.326Z,37.90
2018-04-10T14:20:37.972Z,36.57
2018-04-10T14:23:05.603Z,40.53
2018-04-10T14:25:33.281Z,35.73
2018-04-10T14:28:00.934Z,38.67
2018-04-10T14:30:28.564Z,46.30
2018-04-10T14:32:56.219Z,28.90
2018-04-10T14:35:23.856Z,35.50
2018-04-10T14:37:51.702Z,29.23
2018-04-10T14:40:19.330Z,31.73
2018-04-10T14:42:47.295Z,32.20
2018-04-10T14:45:15.366Z,24.80
2018-04-10T14:47:43.358Z,32.33
2018-04-10T14:50:11.058Z,34.57
2018-04-10T14:52:38.704Z,27.43
2018-04-10T14:55:06.334Z,29.97
2018-04-10T14:57:33.986Z,36.27
2018-04-10T15:00:01.611Z,28.40
2018-04-10T15:02:29.310Z,34.00
2018-04-10T15:04:56.952Z,27.43
2018-04-10T15:07:24.578Z,50.73
2018-04-10T15:09:52.226Z,35.53
2018-04-10T15:12:20.069Z,36.90
2018-04-10T15:14:48.037Z,38.27
2018-04-10T15:17:16.074Z,27.93
2018-04-10T15:19:43.700Z,40.03
2018-04-10T15:22:11.330Z,40.83
2018-04-10T15:24:39.198Z,36.70
2018-04-10T15:27:06.823Z,50.00
2018-04-10T15:29:34.458Z,38.83
2018-04-10T15:32:02.125Z,65.20
2018-04-10T15:34:29.767Z,49.83
2018-04-10T15:36:57.614Z,92.53
2018-04-10T15:39:25.239Z,65.17
2018-04-10T15:41:52.875Z,106.40
2018-04-10T15:44:20.528Z,44.40
2018-04-10T15:46:48.156Z,33.60
2018-04-10T15:49:16.031Z,30.97
2018-04-10T15:51:43.707Z,56.40
2018-04-10T15:54:11.338Z,34.10
2018-04-10T15:56:38.987Z,44.20
2018-04-10T15:59:06.618Z,34.17
2018-04-10T16:01:34.298Z,25.60
2018-04-10T16:04:01.932Z,46.07
2018-04-10T16:06:29.558Z,39.37
2018-04-10T16:08:57.215Z,32.03
2018-04-10T16:11:24.851Z,53.93
2018-04-10T16:13:52.652Z,57.50
2018-04-10T16:16:20.295Z,34.33
2018-04-10T16:18:48.187Z,29.03
2018-04-10T16:21:15.874Z,32.17
2018-04-10T16:23:43.499Z,33.77
2018-04-10T16:26:11.173Z,31.93
2018-04-10T16:28:38.802Z,22.47
2018-04-10T16:31:06.437Z,29.90
2018-04-10T16:33:34.093Z,35.53
2018-04-10T16:36:01.788Z,20.67
2018-04-10T16:38:29.695Z,28.60
2018-04-10T16:40:57.322Z,20.33
2018-04-10T16:43:24.947Z,18.10
2018-04-10T16:45:52.602Z,17.67
2018-04-10T16:48:20.228Z,17.00
2018-04-10T16:50:48.111Z,22.93
2018-04-10T16:53:15.756Z,22.97
2018-04-10T16:55:43.407Z,23.10
2018-04-10T16:58:11.231Z,17.70
2018-04-10T17:00:38.858Z,34.43
2018-04-10T17:03:06.718Z,19.30
2018-04-10T17:05:34.339Z,22.33
2018-04-10T17:08:01.971Z,12.20
2018-04-10T17:10:29.624Z,11.37
2018-04-10T17:12:57.246Z,22.90
2018-04-10T17:15:25.032Z,26.90
2018-04-10T17:17:52.673Z,49.47
2018-04-10T17:20:20.305Z,11.37
2018-04-10T17:22:47.954Z,22.53
2018-04-10T17:25:15.580Z,16.37
2018-04-10T17:27:43.492Z,56.20
2018-04-10T17:30:11.127Z,25.60
2018-04-10T17:32:38.751Z,14.53
2018-04-10T17:35:06.421Z,20.23
2018-04-10T17:37:34.106Z,47.23
2018-04-10T17:40:02.074Z,23.37
2018-04-10T17:42:29.696Z,17.60
2018-04-10T17:44:57.315Z,19.90
2018-04-10T17:47:25.032Z,19.53
2018-04-10T17:49:53.492Z,63.37
2018-04-10T17:52:21.239Z,19.03
2018-04-10T17:54:48.871Z,13.27
2018-04-10T17:57:16.496Z,15.30
2018-04-10T17:59:44.147Z,16.10
2018-04-10T18:02:11.777Z,13.67
2018-04-10T18:04:39.616Z,18.10
2018-04-10T18:07:07.243Z,24.10
2018-04-10T18:09:34.874Z,15.90
2018-04-10T18:12:02.532Z,17.97
2018-04-10T18:14:30.163Z,28.90
2018-04-10T18:16:58.046Z,38.67
2018-04-10T18:19:25.682Z,28.53
2018-04-10T18:21:53.306Z,30.87
2018-04-10T18:24:20.956Z,31.23
2018-04-10T18:26:48.610Z,31.57
2018-04-10T18:29:16.270Z,23.70
2018-04-10T18:31:43.920Z,27.30
2018-04-10T18:34:11.582Z,26.43
2018-04-10T18:36:39.218Z,21.07
2018-04-10T18:39:07.111Z,18.17
2018-04-10T18:41:34.777Z,15.30
2018-04-10T18:44:02.393Z,32.73
2018-04-10T18:46:30.055Z,17.53
2018-04-10T18:48:57.680Z,24.30
2018-04-10T18:51:25.334Z,21.33
2018-04-10T18:53:52.971Z,22.93
2018-04-10T18:56:20.851Z,17.27
2018-04-10T18:58:48.473Z,22.43
2018-04-10T19:01:16.096Z,14.83
2018-04-10T19:03:43.751Z,27.07
2018-04-10T19:06:11.395Z,19.20
2018-04-10T19:08:39.076Z,12.70
2018-04-10T19:11:06.697Z,15.80
2018-04-10T19:13:34.370Z,15.20
2018-04-10T19:16:02.008Z,10.13
2018-04-10T19:18:29.631Z,24.37
2018-04-10T19:20:57.287Z,15.47
2018-04-10T19:23:24.921Z,13.60
2018-04-10T19:25:52.562Z,9.70
2018-04-10T19:28:20.183Z,18.03
2018-04-10T19:30:47.831Z,16.50
2018-04-10T19:33:15.451Z,8.73
2018-04-10T19:35:43.106Z,10.43
2018-04-10T19:38:10.748Z,27.47
2018-04-10T19:40:38.395Z,23.03
2018-04-10T19:43:06.046Z,13.47
2018-04-10T19:45:33.721Z,18.20
2018-04-10T19:48:01.441Z,19.87
2018-04-10T19:50:29.084Z,16.83
2018-04-10T19:52:56.736Z,12.80
2018-04-10T19:55:24.366Z,25.27
2018-04-10T19:57:52.015Z,14.00
2018-04-10T20:00:19.642Z,10.53
2018-04-10T20:02:47.518Z,11.10
2018-04-10T20:05:15.152Z,11.53
2018-04-10T20:07:42.768Z,9.07
2018-04-10T20:10:10.431Z,13.33
2018-04-10T20:12:38.056Z,13.80
2018-04-10T20:15:05.723Z,7.07
2018-04-10T20:17:33.345Z,6.17
2018-04-10T20:20:01.015Z,14.10
2018-04-10T20:22:28.667Z,8.80
2018-04-10T20:24:56.307Z,7.83
2018-04-10T20:27:23.999Z,9.43
2018-04-10T20:29:51.592Z,4.97
2018-04-10T20:32:19.563Z,9.40
2018-04-10T20:34:47.194Z,22.13
2018-04-10T20:37:14.856Z,7.27
2018-04-10T20:39:42.507Z,8.50
2018-04-10T20:42:10.132Z,7.10
2018-04-10T20:44:37.802Z,13.70
2018-04-10T20:47:05.443Z,17.97
2018-04-10T20:49:33.190Z,7.87
2018-04-10T20:52:00.819Z,11.60
2018-04-10T20:54:28.443Z,6.40
2018-04-10T20:56:56.091Z,14.53
2018-04-10T20:59:23.836Z,12.13
2018-04-10T21:01:51.491Z,12.90
2018-04-10T21:04:19.116Z,7.60
2018-04-10T21:06:47.047Z,6.37
2018-04-10T21:09:14.678Z,8.20
2018-04-10T21:11:42.308Z,16.77
2018-04-10T21:14:09.974Z,15.27
2018-04-10T21:16:37.594Z,13.20
2018-04-10T21:19:05.243Z,16.17
2018-04-10T21:21:32.891Z,11.67
2018-04-10T21:24:00.560Z,10.93
2018-04-10T21:26:28.962Z,27.20
2018-04-10T21:28:56.590Z,11.87
2018-04-10T21:31:24.269Z,11.80
2018-04-10T21:33:51.887Z,11.87
2018-04-10T21:36:19.543Z,14.47
2018-04-10T21:38:47.163Z,15.30
2018-04-10T21:41:15.051Z,11.33
2018-04-10T21:43:42.708Z,10.60
2018-04-10T21:46:10.318Z,12.63
2018-04-10T21:48:37.962Z,9.80
2018-04-10T21:51:05.583Z,9.07
2018-04-10T21:53:33.227Z,11.63
2018-04-10T21:56:00.855Z,15.30
2018-04-10T21:58:28.652Z,18.53
2018-04-10T22:00:56.283Z,10.70
2018-04-10T22:03:23.907Z,13.23
2018-04-10T22:05:51.554Z,11.23
2018-04-10T22:08:19.171Z,8.13
2018-04-10T22:10:46.815Z,10.33
2018-04-10T22:13:14.443Z,12.87
2018-04-10T22:15:42.087Z,9.60
2018-04-10T22:18:09.707Z,7.37
2018-04-10T22:20:37.323Z,8.40
2018-04-10T22:23:04.967Z,8.10
2018-04-10T22:25:32.591Z,11.87
2018-04-10T22:28:00.258Z,9.90
2018-04-10T22:30:27.875Z,10.03
2018-04-10T22:32:55.489Z,6.90
2018-04-10T22:35:23.108Z,8.50
2018-04-10T22:37:50.783Z,10.73
2018-04-10T22:40:18.415Z,7.53
2018-04-10T22:42:46.031Z,8.20
2018-04-10T22:45:13.675Z,7.70
2018-04-10T22:47:41.305Z,9.03
2018-04-10T22:50:08.959Z,7.67
2018-04-10T22:52:36.610Z,13.20
2018-04-10T22:55:04.262Z,8.13
2018-04-10T22:57:31.875Z,8.07
2018-04-10T22:59:59.550Z,8.17
2018-04-10T23:02:27.188Z,10.07
2018-04-10T23:04:54.853Z,7.03
2018-04-10T23:07:22.484Z,17.60
2018-04-10T23:09:50.193Z,15.73
2018-04-10T23:12:17.819Z,8.93
2018-04-10T23:14:45.484Z,10.80
2018-04-10T23:17:13.107Z,12.93
2018-04-10T23:19:40.743Z,15.33
2018-04-10T23:22:08.420Z,7.43
2018-04-10T23:24:36.048Z,8.60
2018-04-10T23:27:03.727Z,13.93
2018-04-10T23:29:31.403Z,10.37
2018-04-10T23:31:59.032Z,11.80
2018-04-10T23:34:26.688Z,7.00
2018-04-10T23:36:54.312Z,10.47
2018-04-10T23:39:21.955Z,9.73
2018-04-10T23:41:49.583Z,17.53
2018-04-10T23:44:17.270Z,11.90
2018-04-10T23:46:44.888Z,8.70
2018-04-10T23:49:12.507Z,9.30
2018-04-10T23:51:40.159Z,13.67
2018-04-10T23:54:07.979Z,12.27
2018-04-10T23:56:35.631Z,12.17
2018-04-10T23:59:03.268Z,15.50
